Aegean Orion — SVA2487 — position and weather

sailwx.info

Track history (hours):
 
Tides and Currents Weather Stations Pressure Air Temp Water Temp Dewpoint Dewpoint Depression Visibility Wind Speed Wind Dir Waves Ship Positions

Aegean Orion

Last reported at 2014-Sep-01 11:22 UTC. Time now 2014-Sep-01 19:02 UTC.
Position N 38°02' E 023°32'.

Length 52 m; draft 2.4 m.

Type: Ship. MMSI: 239550200.

Date/timePositionNaut miles runAvg speedWind from/ knotsBaromVisibWave heightAir tempDewpointWater temp
2014-Sep-01 11:22N 38°02' E 023°32'0 0.0
2014-Sep-01 10:33N 38°02' E 023°32'1 1.4
2014-Sep-01 09:33N 38°01' E 023°32'6 6.0
2014-Sep-01 08:33N 37°56' E 023°37'0 0.0
2014-Sep-01 07:33N 37°56' E 023°38'0 0.0
2014-Sep-01 06:33N 37°56' E 023°38'0 0.0
2014-Sep-01 05:33N 37°56' E 023°38'3 2.8
2014-Sep-01 04:34N 37°57' E 023°34'0 0.0
2014-Sep-01 03:33N 37°57' E 023°34'0 0.0
2014-Sep-01 02:33N 37°57' E 023°34'0 0.0
2014-Sep-01 01:33N 37°57' E 023°34'0 0.0
2014-Sep-01 00:33N 37°57' E 023°34'0 0.0
2014-Aug-31 23:33N 37°57' E 023°34'0 0.0
2014-Aug-31 22:33N 37°57' E 023°34'0 0.0
2014-Aug-31 21:33N 37°57' E 023°34'0 0.0
2014-Aug-31 20:33N 37°57' E 023°34'0 0.0
2014-Aug-31 19:34N 37°57' E 023°34'2 1.7
2014-Aug-31 18:33N 37°58' E 023°36'0 0.0
2014-Aug-31 17:33N 37°58' E 023°36'0 0.0
2014-Aug-31 16:33N 37°58' E 023°36'0 0.1
2014-Aug-31 15:33N 37°58' E 023°36'2 1.5
2014-Aug-31 14:33N 37°57' E 023°34'0 0.0
2014-Aug-31 13:33N 37°57' E 023°34'0 0.0
2014-Aug-31 12:33N 37°57' E 023°34'0 0.0
2014-Aug-31 11:33N 37°57' E 023°34'0 0.0
2014-Aug-31 10:33N 37°57' E 023°34'0 0.0
2014-Aug-31 09:33N 37°57' E 023°34'0 0.0
2014-Aug-31 08:34N 37°57' E 023°34'5 5.1
2014-Aug-31 07:31N 38°02' E 023°32'1 0.0
2014-Aug-30 09:33N 38°02' E 023°31'0 0.0
2014-Aug-30 08:33N 38°02' E 023°31'0 0.0
2014-Aug-30 07:33N 38°02' E 023°31'0 0.0
2014-Aug-30 06:33N 38°02' E 023°31'0 0.0
2014-Aug-30 05:32N 38°02' E 023°31'0 0.1
2014-Aug-30 04:33N 38°02' E 023°31'1 0.1
2014-Aug-29 12:33N 38°02' E 023°32'4 4.3
2014-Aug-29 11:33N 37°58' E 023°33'4 4.0
2014-Aug-29 10:33N 37°56' E 023°37'0 0.0
2014-Aug-29 09:33N 37°56' E 023°38'0 0.0
2014-Aug-29 08:33N 37°56' E 023°38'2 1.9
2014-Aug-29 07:33N 37°57' E 023°35'5 5.1
2014-Aug-29 06:33N 38°02' E 023°35'0 0.0
2014-Aug-29 05:18N 38°02' E 023°35'0 0.0
2014-Aug-29 04:29N 38°02' E 023°35'3 0.2
2014-Aug-28 11:33N 38°02' E 023°32'6 6.2
2014-Aug-28 10:33N 37°57' E 023°36'1 1.3
2014-Aug-28 09:33N 37°56' E 023°37'0 0.0
2014-Aug-28 08:33N 37°56' E 023°37'1 0.8
2014-Aug-28 07:33N 37°57' E 023°38'0 0.0
2014-Aug-28 06:33N 37°57' E 023°38'0 0.0
2014-Aug-28 05:33N 37°57' E 023°38'2 2.3
2014-Aug-28 04:33N 37°57' E 023°35'6 6.0
2014-Aug-28 03:33N 38°02' E 023°32'0 0.0
2014-Aug-27 10:08N 38°02' E 023°32'0 0.0
2014-Aug-27 09:23N 38°02' E 023°32'1 1.2
2014-Aug-27 08:33N 38°02' E 023°31'0 0.0
2014-Aug-27 07:30N 38°02' E 023°31'0 0.0
2014-Aug-27 06:33N 38°02' E 023°31'0 0.0
2014-Aug-27 05:31N 38°02' E 023°31'0 0.0
2014-Aug-27 04:32N 38°02' E 023°31'1 0.1
2014-Aug-26 09:33N 38°02' E 023°32'0 0.0
2014-Aug-26 08:29N 38°02' E 023°32'0 0.0
2014-Aug-26 07:30N 38°02' E 023°32'0 0.0
2014-Aug-26 06:33N 38°02' E 023°32'0 0.0
2014-Aug-26 05:32N 38°02' E 023°32'4 4.2
2014-Aug-26 04:33N 37°58' E 023°33'1 1.4
2014-Aug-26 03:34N 37°57' E 023°34'0 0.0
2014-Aug-26 02:34N 37°57' E 023°34'0 0.0
2014-Aug-26 01:33N 37°57' E 023°34'0 0.0
2014-Aug-26 00:33N 37°57' E 023°34'0 0.0
2014-Aug-25 23:33N 37°57' E 023°34'0 0.0
2014-Aug-25 22:33N 37°57' E 023°34'0 0.0
2014-Aug-25 21:33N 37°57' E 023°34'0 0.0
2014-Aug-25 20:33N 37°57' E 023°34'2 2.2
2014-Aug-25 19:34N 37°56' E 023°37'2 1.6
2014-Aug-25 18:33N 37°57' E 023°38'0 0.0
2014-Aug-25 17:33N 37°57' E 023°38'2 1.7
2014-Aug-25 16:34N 37°57' E 023°36'5 4.9
2014-Aug-25 15:28N 38°01' E 023°32'2 0.8
2014-Aug-25 13:25N 38°02' E 023°32'0 0.0
2014-Aug-25 12:32N 38°02' E 023°32'0 0.0
2014-Aug-25 11:26N 38°02' E 023°32'0 0.0
2014-Aug-25 10:31N 38°02' E 023°32'0 0.0
2014-Aug-25 09:32N 38°02' E 023°32'  
2014-Aug-22 11:28N 38°02' E 023°32'  
Track history (hours):
 
Tides and Currents Weather Stations Pressure Air Temp Water Temp Dewpoint Dewpoint Depression Visibility Wind Speed Wind Dir Waves Ship Positions

Aegean Orion

Last reported at 2014-Sep-01 11:22 UTC. Time now 2014-Sep-01 19:02 UTC.
Position N 38°02' E 023°32'.

Length 52 m; draft 2.4 m.

Type: Ship. MMSI: 239550200.

Date/timePositionNaut miles runAvg speedWind from/ knotsBaromVisibWave heightAir tempDewpointWater temp
2014-Sep-01 11:22N 38°02' E 023°32'0 0.0
2014-Sep-01 10:33N 38°02' E 023°32'1 1.4
2014-Sep-01 09:33N 38°01' E 023°32'6 6.0
2014-Sep-01 08:33N 37°56' E 023°37'0 0.0
2014-Sep-01 07:33N 37°56' E 023°38'0 0.0
2014-Sep-01 06:33N 37°56' E 023°38'0 0.0
2014-Sep-01 05:33N 37°56' E 023°38'3 2.8
2014-Sep-01 04:34N 37°57' E 023°34'0 0.0
2014-Sep-01 03:33N 37°57' E 023°34'0 0.0
2014-Sep-01 02:33N 37°57' E 023°34'0 0.0
2014-Sep-01 01:33N 37°57' E 023°34'0 0.0
2014-Sep-01 00:33N 37°57' E 023°34'0 0.0
2014-Aug-31 23:33N 37°57' E 023°34'0 0.0
2014-Aug-31 22:33N 37°57' E 023°34'0 0.0
2014-Aug-31 21:33N 37°57' E 023°34'0 0.0
2014-Aug-31 20:33N 37°57' E 023°34'0 0.0
2014-Aug-31 19:34N 37°57' E 023°34'2 1.7
2014-Aug-31 18:33N 37°58' E 023°36'0 0.0
2014-Aug-31 17:33N 37°58' E 023°36'0 0.0
2014-Aug-31 16:33N 37°58' E 023°36'0 0.1
2014-Aug-31 15:33N 37°58' E 023°36'2 1.5
2014-Aug-31 14:33N 37°57' E 023°34'0 0.0
2014-Aug-31 13:33N 37°57' E 023°34'0 0.0
2014-Aug-31 12:33N 37°57' E 023°34'0 0.0
2014-Aug-31 11:33N 37°57' E 023°34'0 0.0
2014-Aug-31 10:33N 37°57' E 023°34'0 0.0
2014-Aug-31 09:33N 37°57' E 023°34'0 0.0
2014-Aug-31 08:34N 37°57' E 023°34'5 5.1
2014-Aug-31 07:31N 38°02' E 023°32'1 0.0
2014-Aug-30 09:33N 38°02' E 023°31'0 0.0
2014-Aug-30 08:33N 38°02' E 023°31'0 0.0
2014-Aug-30 07:33N 38°02' E 023°31'0 0.0
2014-Aug-30 06:33N 38°02' E 023°31'0 0.0
2014-Aug-30 05:32N 38°02' E 023°31'0 0.1
2014-Aug-30 04:33N 38°02' E 023°31'1 0.1
2014-Aug-29 12:33N 38°02' E 023°32'4 4.3
2014-Aug-29 11:33N 37°58' E 023°33'4 4.0
2014-Aug-29 10:33N 37°56' E 023°37'0 0.0
2014-Aug-29 09:33N 37°56' E 023°38'0 0.0
2014-Aug-29 08:33N 37°56' E 023°38'2 1.9
2014-Aug-29 07:33N 37°57' E 023°35'5 5.1
2014-Aug-29 06:33N 38°02' E 023°35'0 0.0
2014-Aug-29 05:18N 38°02' E 023°35'0 0.0
2014-Aug-29 04:29N 38°02' E 023°35'3 0.2
2014-Aug-28 11:33N 38°02' E 023°32'6 6.2
2014-Aug-28 10:33N 37°57' E 023°36'1 1.3
2014-Aug-28 09:33N 37°56' E 023°37'0 0.0
2014-Aug-28 08:33N 37°56' E 023°37'1 0.8
2014-Aug-28 07:33N 37°57' E 023°38'0 0.0
2014-Aug-28 06:33N 37°57' E 023°38'0 0.0
2014-Aug-28 05:33N 37°57' E 023°38'2 2.3
2014-Aug-28 04:33N 37°57' E 023°35'6 6.0
2014-Aug-28 03:33N 38°02' E 023°32'0 0.0
2014-Aug-27 10:08N 38°02' E 023°32'0 0.0
2014-Aug-27 09:23N 38°02' E 023°32'1 1.2
2014-Aug-27 08:33N 38°02' E 023°31'0 0.0
2014-Aug-27 07:30N 38°02' E 023°31'0 0.0
2014-Aug-27 06:33N 38°02' E 023°31'0 0.0
2014-Aug-27 05:31N 38°02' E 023°31'0 0.0
2014-Aug-27 04:32N 38°02' E 023°31'1 0.1
2014-Aug-26 09:33N 38°02' E 023°32'0 0.0
2014-Aug-26 08:29N 38°02' E 023°32'0 0.0
2014-Aug-26 07:30N 38°02' E 023°32'0 0.0
2014-Aug-26 06:33N 38°02' E 023°32'0 0.0
2014-Aug-26 05:32N 38°02' E 023°32'4 4.2
2014-Aug-26 04:33N 37°58' E 023°33'1 1.4
2014-Aug-26 03:34N 37°57' E 023°34'0 0.0
2014-Aug-26 02:34N 37°57' E 023°34'0 0.0
2014-Aug-26 01:33N 37°57' E 023°34'0 0.0
2014-Aug-26 00:33N 37°57' E 023°34'0 0.0
2014-Aug-25 23:33N 37°57' E 023°34'0 0.0
2014-Aug-25 22:33N 37°57' E 023°34'0 0.0
2014-Aug-25 21:33N 37°57' E 023°34'0 0.0
2014-Aug-25 20:33N 37°57' E 023°34'2 2.2
2014-Aug-25 19:34N 37°56' E 023°37'2 1.6
2014-Aug-25 18:33N 37°57' E 023°38'0 0.0
2014-Aug-25 17:33N 37°57' E 023°38'2 1.7
2014-Aug-25 16:34N 37°57' E 023°36'5 4.9
2014-Aug-25 15:28N 38°01' E 023°32'2 0.8
2014-Aug-25 13:25N 38°02' E 023°32'0 0.0
2014-Aug-25 12:32N 38°02' E 023°32'0 0.0
2014-Aug-25 11:26N 38°02' E 023°32'0 0.0
2014-Aug-25 10:31N 38°02' E 023°32'0 0.0
2014-Aug-25 09:32N 38°02' E 023°32'  
2014-Aug-22 11:28N 38°02' E 023°32'  

Dump ship's entire track history